METAR Data
IDs: Format: Raw Decoded Include TAF

Data at: 2253 UTC 21 May 2022

KRTS 212235Z AUTO 10007KT 070V150 10SM CLR 18/M14 A3004 RMK AO2
KRTS 212215Z AUTO VRB06G11KT 10SM CLR 18/M14 A3004 RMK AO2
KRTS 212155Z AUTO 17010KT 10SM CLR 18/M14 A3004 RMK AO2
KRTS 212135Z AUTO 15008KT 10SM CLR 17/M15 A3005 RMK AO2
KRTS 212115Z AUTO 08009KT 10SM CLR 17/M15 A3005 RMK AO2
KRTS 212055Z AUTO 14006G14KT 10SM CLR 17/M15 A3005 RMK AO2
KRTS 212035Z AUTO 11007KT 090V150 10SM CLR 16/M15 A3006 RMK AO2
KRTS 212015Z AUTO VRB04KT 10SM CLR 16/M16 A3006 RMK AO2
KRTS 211955Z AUTO 10006G14KT 10SM CLR 16/M15 A3006 RMK AO2
KRTS 211935Z AUTO VRB04G13KT 10SM CLR 15/M14 A3006 RMK AO2
KRTS 211915Z AUTO 12004G12KT 10SM CLR 15/M14 A3006 RMK AO2
KRTS 211855Z AUTO 00000KT 10SM CLR 14/M14 A3006 RMK AO2
KRTS 211835Z AUTO 00000G12KT 10SM CLR 14/M14 A3006 RMK AO2
KRTS 211815Z AUTO 11007KT 050V150 10SM CLR 14/M12 A3006 RMK AO2
KRTS 211755Z AUTO VRB05G11KT 10SM CLR 13/M12 A3006 RMK AO2
KRTS 211735Z AUTO 15005KT 10SM CLR 13/M11 A3006 RMK AO2
KRTS 211715Z AUTO 10006G13KT 10SM CLR 13/M10 A3006 RMK AO2
KRTS 211655Z AUTO VRB06KT 10SM CLR 13/M10 A3006 RMK AO2